Largo, MD (20792)

1:30 PM EST on February 28, 2015 (GMT -0500)
APRSWXNET Upper Marlboro MD US | Change Station
CLOSE
Current Station
Personal Weather Station
Location: Upper Marlboro, MD
Elevation: 196 ft
Nearby Weather Stations

Elev 196 ft 38.83 °N, 76.80 °W | Updated 27 minutes ago

Partly Cloudy
Partly Cloudy
29 °F
Feels Like 29 °F
N
0
Wind Variable Wind from NNE
Gusts 3.0 mph

Today
High -- | Low -- °F
--% Chance of Precip.
Yesterday
High -- | Low -- °F
Precip. -- in
6:41 AM 5:58 PM
Waxing Gibbous, 79% visible
Pressure 30.85 in
Visibility 10.0 miles
Clouds Few 20000 ft
Windchill 29 °F
Dew Point 8 °F
Humidity 40%
Rainfall 0.00 in
Snow Depth Not available.
UV 5 out of 12
Pollen 2.70 out of 12
Air Quality Not available.
Flu Activity Not available.
METAR KADW 281758Z AUTO VRB01KT 10SM FEW200 M03/M16 A3081 RMK AO2 SLP445 T10271164 11027 21091 58015 $

More Conditions Fewer Conditions

Pressure 30.85 in
Visibility 10.0 miles
Clouds Few 20000 ft
Windchill 29 °F
Dew Point 8 °F
Humidity 40%
Rainfall 0.00 in
Snow Depth Not available.
UV 5 out of 12
Pollen 2.70 out of 12
Air Quality Not available.
Flu Activity Not available.
METAR KADW 281758Z AUTO VRB01KT 10SM FEW200 M03/M16 A3081 RMK AO2 SLP445 T10271164 11027 21091 58015 $

More Conditions Fewer Conditions

10-Day Weather Forecast

Almanac

Astronomy

Feb. 28, 2015 Rise Set
Actual Time
Civil Twilight
Nautical Twilight
Astronomical Twilight
Moon
Length of Visible Light
Length of Day
Tomorrow will be .
, % of the Moon is Illuminated

Today's Extremes

State Highs State Lows

Community

WunderPhotos

Upload Photos

1,801,106 photos uploaded!

WunderBlogs® & News

Nearby

Air Quality

  Air Quality AQ Index Pollutant
Not available.

Snow Depth

Station Depth Elevation

Earthquake Activity

City Distance Mag. Time & Date
Minimum magnitude displayed is 2.5.

Coastal Water Temperatures

Place Temperature

Nearby Weather Stations